createdAt,value
2017-05-01T00:00:14.934Z,0
2017-05-01T00:00:55.439Z,0
2017-05-01T00:01:35.922Z,0
2017-05-01T00:02:16.435Z,0
2017-05-01T00:02:56.918Z,0
2017-05-01T00:03:37.482Z,0
2017-05-01T00:04:17.926Z,0
2017-05-01T00:04:58.413Z,0
2017-05-01T00:05:38.905Z,0
2017-05-01T00:06:19.360Z,0
2017-05-01T00:06:59.877Z,0
2017-05-01T00:07:40.386Z,0
2017-05-01T00:08:21.279Z,0
2017-05-01T00:09:02.007Z,0
2017-05-01T00:09:42.503Z,0
2017-05-01T00:10:22.985Z,0
2017-05-01T00:11:03.480Z,0
2017-05-01T00:11:43.978Z,0
2017-05-01T00:12:24.485Z,0
2017-05-01T00:13:04.996Z,0
2017-05-01T00:13:45.461Z,0
2017-05-01T00:14:25.943Z,0
2017-05-01T00:15:06.471Z,0
2017-05-01T00:15:46.938Z,0
2017-05-01T00:16:27.491Z,0
2017-05-01T00:17:07.991Z,0
2017-05-01T00:17:48.469Z,0
2017-05-01T00:18:28.936Z,0
2017-05-01T00:19:09.463Z,0
2017-05-01T00:19:49.976Z,0
2017-05-01T00:20:30.454Z,0
2017-05-01T00:21:10.939Z,0
2017-05-01T00:21:51.414Z,0
2017-05-01T00:22:31.936Z,0
2017-05-01T00:23:12.411Z,0
2017-05-01T00:23:52.890Z,0
2017-05-01T00:24:33.376Z,0
2017-05-01T00:25:13.886Z,0
2017-05-01T00:25:54.393Z,0
2017-05-01T00:26:34.909Z,0
2017-05-01T00:27:15.412Z,0
2017-05-01T00:27:55.970Z,0
2017-05-01T00:28:36.429Z,0
2017-05-01T00:29:16.917Z,0
2017-05-01T00:29:57.426Z,0
2017-05-01T00:30:37.942Z,0
2017-05-01T00:31:18.462Z,0
2017-05-01T00:31:58.974Z,0
2017-05-01T00:32:39.493Z,0
2017-05-01T00:33:20.007Z,0
2017-05-01T00:34:00.533Z,0
2017-05-01T00:34:41.035Z,0
2017-05-01T00:35:21.548Z,0
2017-05-01T00:36:02.088Z,0
2017-05-01T00:36:42.618Z,0
2017-05-01T00:37:23.118Z,0
2017-05-01T00:38:03.632Z,0
2017-05-01T00:38:44.158Z,0
2017-05-01T00:39:24.693Z,0
2017-05-01T00:40:05.200Z,0
2017-05-01T00:40:45.731Z,0
2017-05-01T00:41:26.262Z,0
2017-05-01T00:44:04.928Z,0
2017-05-01T00:44:45.445Z,0
2017-05-01T00:45:25.960Z,0
2017-05-01T00:46:06.474Z,0
2017-05-01T00:46:47.000Z,0
2017-05-01T00:47:27.524Z,0
2017-05-01T00:48:08.040Z,0
2017-05-01T00:48:48.554Z,0
2017-05-01T00:49:29.104Z,0
2017-05-01T00:50:09.619Z,0
2017-05-01T00:50:50.150Z,0
2017-05-01T00:51:30.683Z,0
2017-05-01T00:52:11.199Z,0
2017-05-01T00:52:51.719Z,0
2017-05-01T00:53:32.241Z,0
2017-05-01T00:54:12.759Z,0
2017-05-01T00:54:53.266Z,0
2017-05-01T00:55:33.781Z,0
2017-05-01T00:56:14.303Z,0
2017-05-01T00:56:54.818Z,0
2017-05-01T00:57:35.325Z,0
2017-05-01T00:58:15.834Z,0
2017-05-01T00:58:56.379Z,0
2017-05-01T00:59:36.931Z,0
2017-05-01T01:00:17.352Z,0
2017-05-01T01:00:57.847Z,0
2017-05-01T01:01:38.349Z,0
2017-05-01T01:02:18.826Z,0
2017-05-01T01:02:59.326Z,0
2017-05-01T01:03:39.829Z,0
2017-05-01T01:04:20.291Z,0
2017-05-01T01:05:00.817Z,0
2017-05-01T01:05:41.294Z,0
2017-05-01T01:06:21.794Z,0
2017-05-01T01:07:02.276Z,0
2017-05-01T01:07:42.802Z,0
2017-05-01T01:08:23.280Z,0
2017-05-01T01:09:03.828Z,0
2017-05-01T01:09:44.312Z,0
2017-05-01T01:10:24.814Z,0
2017-05-01T01:11:05.268Z,0
2017-05-01T01:11:45.755Z,0
2017-05-01T01:12:26.249Z,0
2017-05-01T01:13:06.720Z,0
2017-05-01T01:13:47.148Z,0
2017-05-01T01:14:27.692Z,0
2017-05-01T01:15:08.179Z,0
2017-05-01T01:15:48.653Z,0
2017-05-01T01:16:29.144Z,0
2017-05-01T01:17:09.622Z,0
2017-05-01T01:17:50.107Z,0
2017-05-01T01:18:30.621Z,0
2017-05-01T01:19:11.135Z,0
2017-05-01T01:19:51.652Z,0
2017-05-01T01:20:32.174Z,0
2017-05-01T01:21:12.695Z,0
2017-05-01T01:21:53.206Z,0
2017-05-01T01:22:33.714Z,0
2017-05-01T01:23:14.247Z,0
2017-05-01T01:23:54.760Z,0
2017-05-01T01:24:35.284Z,0
2017-05-01T01:25:15.812Z,0
2017-05-01T01:25:56.295Z,0
2017-05-01T01:26:36.809Z,0
2017-05-01T01:27:17.324Z,0
2017-05-01T01:27:57.827Z,0
2017-05-01T01:28:38.322Z,0
2017-05-01T01:29:18.853Z,0
2017-05-01T01:29:59.355Z,0
2017-05-01T01:30:39.853Z,0
2017-05-01T01:31:20.380Z,0
2017-05-01T01:32:00.894Z,0
2017-05-01T01:32:41.389Z,0
2017-05-01T01:33:21.898Z,0
2017-05-01T01:34:02.409Z,0
2017-05-01T01:34:42.908Z,0
2017-05-01T01:35:23.426Z,0
2017-05-01T01:36:03.949Z,0
2017-05-01T01:36:44.464Z,0
2017-05-01T01:37:24.990Z,0
2017-05-01T01:38:05.503Z,0
2017-05-01T01:38:45.986Z,0
2017-05-01T01:39:26.494Z,0
2017-05-01T01:40:06.986Z,0
2017-05-01T01:40:47.485Z,0
2017-05-01T01:41:27.999Z,0
2017-05-01T01:42:08.521Z,0
2017-05-01T01:42:49.033Z,0
2017-05-01T01:43:29.544Z,0
2017-05-01T01:44:10.057Z,0
2017-05-01T01:44:50.597Z,0
2017-05-01T01:45:31.136Z,0
2017-05-01T01:46:11.653Z,0
2017-05-01T01:46:52.130Z,0
2017-05-01T01:47:32.630Z,0
2017-05-01T01:48:13.169Z,0
2017-05-01T01:48:53.658Z,0
2017-05-01T01:49:34.159Z,0
2017-05-01T01:50:14.627Z,0
2017-05-01T01:50:55.142Z,0
2017-05-01T01:51:35.676Z,0
2017-05-01T01:52:16.206Z,0
2017-05-01T01:52:56.660Z,0
2017-05-01T01:53:37.167Z,0
2017-05-01T01:54:17.682Z,0
2017-05-01T01:54:58.189Z,0
2017-05-01T01:55:38.690Z,0
2017-05-01T01:56:19.209Z,0
2017-05-01T01:56:59.727Z,0
2017-05-01T01:57:40.234Z,0
2017-05-01T01:58:20.743Z,0
2017-05-01T01:59:01.260Z,0
2017-05-01T01:59:41.768Z,0
2017-05-01T02:00:22.263Z,0
2017-05-01T02:01:02.781Z,0
2017-05-01T02:01:43.300Z,0
2017-05-01T02:03:56.526Z,0
2017-05-01T02:04:37.064Z,0
2017-05-01T02:05:17.575Z,0
2017-05-01T02:05:58.139Z,0
2017-05-01T02:06:38.636Z,0
2017-05-01T02:07:19.150Z,0
2017-05-01T02:07:59.658Z,0
2017-05-01T02:08:40.170Z,0
2017-05-01T02:09:20.693Z,0
2017-05-01T02:10:01.205Z,0
2017-05-01T02:10:41.723Z,0
2017-05-01T02:11:22.244Z,0
2017-05-01T02:12:02.772Z,0
2017-05-01T02:12:43.271Z,0
2017-05-01T02:13:23.795Z,0
2017-05-01T02:14:04.324Z,0
2017-05-01T02:14:44.825Z,0
2017-05-01T02:15:25.349Z,0
2017-05-01T02:16:05.874Z,0
2017-05-01T02:16:46.383Z,0
2017-05-01T02:17:26.888Z,0
2017-05-01T02:18:07.394Z,0
2017-05-01T02:18:47.910Z,0
2017-05-01T02:19:28.404Z,0
2017-05-01T02:20:08.909Z,0
2017-05-01T02:20:49.429Z,0
2017-05-01T02:21:29.922Z,0
2017-05-01T02:22:10.451Z,0
2017-05-01T02:22:50.970Z,0
2017-05-01T02:23:31.500Z,0
2017-05-01T02:24:12.009Z,0
2017-05-01T02:24:52.528Z,0
2017-05-01T02:25:33.033Z,0
2017-05-01T02:26:13.558Z,0
2017-05-01T02:26:54.052Z,0
2017-05-01T02:27:34.563Z,0
2017-05-01T02:28:15.098Z,0
2017-05-01T02:28:55.597Z,0
2017-05-01T02:29:36.115Z,0
2017-05-01T02:30:16.631Z,0
2017-05-01T02:30:57.132Z,0
2017-05-01T02:31:37.635Z,0
2017-05-01T02:32:18.125Z,0
2017-05-01T02:32:58.639Z,0
2017-05-01T02:33:39.141Z,0
2017-05-01T02:34:19.661Z,0
2017-05-01T02:35:00.203Z,0
2017-05-01T02:35:40.685Z,0
2017-05-01T02:36:21.189Z,0
2017-05-01T02:37:01.709Z,0
2017-05-01T02:37:42.221Z,0
2017-05-01T02:38:22.703Z,0
2017-05-01T02:39:03.210Z,0
2017-05-01T02:39:43.730Z,0
2017-05-01T02:40:24.247Z,0
2017-05-01T02:41:04.769Z,0
2017-05-01T02:41:45.304Z,0
2017-05-01T02:42:25.800Z,0
2017-05-01T02:43:06.316Z,0
2017-05-01T02:43:46.825Z,0
2017-05-01T02:44:27.333Z,0
2017-05-01T02:45:07.832Z,0
2017-05-01T02:45:48.343Z,0
2017-05-01T02:46:28.859Z,0
2017-05-01T02:47:09.385Z,0
2017-05-01T02:47:49.894Z,0
2017-05-01T02:48:30.386Z,0
2017-05-01T02:49:10.892Z,0
2017-05-01T02:49:51.432Z,0
2017-05-01T02:50:31.915Z,0
2017-05-01T02:51:12.425Z,0
2017-05-01T02:51:52.954Z,0
2017-05-01T02:52:33.459Z,0
2017-05-01T02:53:13.981Z,0
2017-05-01T02:53:54.489Z,0
2017-05-01T02:54:34.982Z,0
2017-05-01T02:55:15.496Z,0
2017-05-01T02:57:49.130Z,0
2017-05-01T02:58:29.637Z,0
2017-05-01T02:59:10.151Z,0
2017-05-01T02:59:50.681Z,0
2017-05-01T03:00:31.207Z,0
2017-05-01T03:01:11.725Z,0
2017-05-01T03:01:52.243Z,0
2017-05-01T03:02:32.754Z,0
2017-05-01T03:03:13.274Z,0
2017-05-01T03:03:53.796Z,0
2017-05-01T03:04:34.312Z,0
2017-05-01T03:05:14.836Z,0
2017-05-01T03:05:55.360Z,0
2017-05-01T03:06:35.876Z,0
2017-05-01T03:07:16.387Z,0
2017-05-01T03:07:56.902Z,0
2017-05-01T03:08:37.422Z,0
2017-05-01T03:09:17.928Z,0
2017-05-01T03:09:58.443Z,0
2017-05-01T03:10:38.956Z,0
2017-05-01T03:11:19.459Z,0
2017-05-01T03:11:59.960Z,0
2017-05-01T03:12:40.482Z,0
2017-05-01T03:13:20.987Z,0
2017-05-01T03:14:01.511Z,0
2017-05-01T03:14:42.000Z,0
2017-05-01T03:15:22.524Z,0
2017-05-01T03:16:03.024Z,0
2017-05-01T03:16:43.535Z,0
2017-05-01T03:17:24.033Z,0
2017-05-01T03:18:04.537Z,0
2017-05-01T03:18:45.042Z,0
2017-05-01T03:19:25.550Z,0
2017-05-01T03:20:06.084Z,0
2017-05-01T03:20:46.616Z,0
2017-05-01T03:21:27.104Z,0
2017-05-01T03:22:07.609Z,0
2017-05-01T03:22:48.117Z,0
2017-05-01T03:23:28.631Z,0
2017-05-01T03:24:09.145Z,0
2017-05-01T03:24:49.672Z,0
2017-05-01T03:25:30.187Z,0
2017-05-01T03:26:10.695Z,0
2017-05-01T03:26:51.208Z,0
2017-05-01T03:27:31.706Z,0
2017-05-01T03:28:12.246Z,0
2017-05-01T03:28:52.722Z,0
2017-05-01T03:29:33.235Z,0
2017-05-01T03:30:13.749Z,0
2017-05-01T03:30:54.256Z,0
2017-05-01T03:31:34.766Z,0
2017-05-01T03:32:15.285Z,0
2017-05-01T03:32:55.810Z,0
2017-05-01T03:33:36.339Z,0
2017-05-01T03:34:16.844Z,0
2017-05-01T03:34:57.372Z,0
2017-05-01T03:35:37.876Z,0
2017-05-01T03:36:18.376Z,0
2017-05-01T03:36:58.864Z,0
2017-05-01T03:37:39.375Z,0
2017-05-01T03:38:19.899Z,0
2017-05-01T03:39:00.383Z,0
2017-05-01T03:39:40.874Z,0
2017-05-01T03:40:21.378Z,0
2017-05-01T03:41:01.876Z,0
2017-05-01T03:41:42.356Z,0
2017-05-01T03:42:22.844Z,0
2017-05-01T03:43:03.358Z,0
2017-05-01T03:43:43.865Z,0
2017-05-01T03:44:24.332Z,0
2017-05-01T03:45:04.844Z,0
2017-05-01T03:45:45.367Z,0
2017-05-01T03:46:25.867Z,0
2017-05-01T03:47:06.380Z,0
2017-05-01T03:47:46.886Z,0
2017-05-01T03:48:27.400Z,0
2017-05-01T03:49:07.920Z,0
2017-05-01T03:49:48.442Z,0
2017-05-01T03:50:28.965Z,0
2017-05-01T03:51:09.461Z,0
2017-05-01T03:51:49.978Z,0
2017-05-01T03:52:30.483Z,0
2017-05-01T03:53:11.001Z,0
2017-05-01T03:53:51.529Z,0
2017-05-01T03:54:31.992Z,0
2017-05-01T03:55:12.493Z,0
2017-05-01T03:55:53.021Z,0
2017-05-01T03:58:31.825Z,0
2017-05-01T03:59:12.343Z,0
2017-05-01T03:59:52.847Z,0
2017-05-01T04:00:33.374Z,0
2017-05-01T04:01:13.873Z,0
2017-05-01T04:01:54.414Z,0
2017-05-01T04:02:34.929Z,0
2017-05-01T04:03:15.473Z,0
2017-05-01T04:03:55.964Z,0
2017-05-01T04:04:36.461Z,0
2017-05-01T04:05:16.978Z,0
2017-05-01T04:05:57.479Z,0
2017-05-01T04:06:37.992Z,0
2017-05-01T04:07:18.518Z,0
2017-05-01T04:07:59.000Z,0
2017-05-01T04:08:39.521Z,0
2017-05-01T04:09:20.019Z,0
2017-05-01T04:10:00.528Z,0
2017-05-01T04:10:41.057Z,0
2017-05-01T04:11:21.549Z,0
2017-05-01T04:12:02.058Z,0
2017-05-01T04:12:42.664Z,0
2017-05-01T04:13:23.066Z,0
2017-05-01T04:14:03.569Z,0
2017-05-01T04:14:44.069Z,0
2017-05-01T04:15:24.588Z,0
2017-05-01T04:16:05.106Z,0
2017-05-01T04:16:45.614Z,0
2017-05-01T04:17:26.144Z,0
2017-05-01T04:18:06.664Z,0
2017-05-01T04:18:47.182Z,0
2017-05-01T04:19:27.686Z,0
2017-05-01T04:20:08.196Z,0
2017-05-01T04:20:48.718Z,0
2017-05-01T04:21:29.243Z,0
2017-05-01T04:22:09.749Z,0
2017-05-01T04:22:50.247Z,0
2017-05-01T04:23:30.777Z,0
2017-05-01T04:24:11.295Z,0
2017-05-01T04:24:51.800Z,0
2017-05-01T04:25:32.329Z,0
2017-05-01T04:26:12.827Z,0
2017-05-01T04:26:53.370Z,0
2017-05-01T04:27:33.860Z,0
2017-05-01T04:28:14.375Z,0
2017-05-01T04:28:54.886Z,0
2017-05-01T04:29:35.357Z,0
2017-05-01T04:30:15.877Z,0
2017-05-01T04:30:56.400Z,0
2017-05-01T04:31:36.924Z,0
2017-05-01T04:32:17.445Z,0
2017-05-01T04:32:57.951Z,0
2017-05-01T04:33:38.452Z,0
2017-05-01T04:34:18.977Z,0
2017-05-01T04:34:59.500Z,0
2017-05-01T04:37:33.107Z,0
2017-05-01T04:38:13.622Z,0
2017-05-01T04:38:54.138Z,0
2017-05-01T04:39:34.657Z,0
2017-05-01T04:40:15.169Z,0
2017-05-01T04:40:55.693Z,0
2017-05-01T04:41:36.212Z,0
2017-05-01T04:42:16.763Z,0
2017-05-01T04:42:57.275Z,0
2017-05-01T04:43:37.793Z,0
2017-05-01T04:44:18.310Z,0
2017-05-01T04:44:58.826Z,0
2017-05-01T04:45:39.345Z,0
2017-05-01T04:46:19.869Z,0
2017-05-01T04:47:00.364Z,0
2017-05-01T04:47:40.877Z,0
2017-05-01T04:48:21.366Z,0
2017-05-01T04:49:01.902Z,0
2017-05-01T04:49:42.366Z,0
2017-05-01T04:50:22.884Z,0
2017-05-01T04:51:03.378Z,0
2017-05-01T04:51:43.864Z,0
2017-05-01T04:52:24.357Z,0
2017-05-01T04:53:04.895Z,0
2017-05-01T04:53:45.388Z,0
2017-05-01T04:54:25.889Z,0
2017-05-01T04:55:06.351Z,0
2017-05-01T04:55:46.869Z,0
2017-05-01T04:56:27.373Z,0
2017-05-01T04:57:07.869Z,0
2017-05-01T04:57:48.392Z,0
2017-05-01T04:58:28.871Z,0
2017-05-01T04:59:09.368Z,0
2017-05-01T04:59:49.869Z,0
2017-05-01T05:00:30.393Z,0
2017-05-01T05:01:10.905Z,0
2017-05-01T05:01:51.528Z,0
2017-05-01T05:02:32.007Z,0
2017-05-01T05:03:12.512Z,0
2017-05-01T05:03:53.030Z,0
2017-05-01T05:04:33.554Z,0
2017-05-01T05:05:14.075Z,0
2017-05-01T05:05:54.608Z,0
2017-05-01T05:06:35.110Z,0
2017-05-01T05:07:15.638Z,0
2017-05-01T05:07:56.170Z,0
2017-05-01T05:08:36.684Z,0
2017-05-01T05:09:17.178Z,0
2017-05-01T05:09:57.691Z,0
2017-05-01T05:10:38.211Z,0
2017-05-01T05:11:18.722Z,0
2017-05-01T05:11:59.222Z,0
2017-05-01T05:12:39.741Z,0
2017-05-01T05:13:20.242Z,0
2017-05-01T05:14:00.758Z,0
2017-05-01T05:14:41.239Z,0
2017-05-01T05:15:21.750Z,0
2017-05-01T05:16:02.273Z,0
2017-05-01T05:16:42.784Z,0
2017-05-01T05:17:23.281Z,0
2017-05-01T05:18:03.808Z,0
2017-05-01T05:18:44.327Z,0
2017-05-01T05:19:24.831Z,0
2017-05-01T05:20:05.349Z,0
2017-05-01T05:20:45.869Z,0
2017-05-01T05:21:26.384Z,0
2017-05-01T05:22:06.900Z,0
2017-05-01T05:22:47.390Z,0
2017-05-01T05:23:27.906Z,0
2017-05-01T05:24:08.405Z,0
2017-05-01T05:24:48.891Z,0
2017-05-01T05:25:29.393Z,0
2017-05-01T05:26:09.895Z,5
2017-05-01T05:26:50.366Z,5
2017-05-01T05:27:30.843Z,5
2017-05-01T05:28:11.370Z,5
2017-05-01T05:28:51.880Z,5
2017-05-01T05:29:32.385Z,5
2017-05-01T05:30:12.895Z,5
2017-05-01T05:30:53.426Z,5
2017-05-01T05:31:33.918Z,5
2017-05-01T05:32:14.435Z,5
2017-05-01T05:32:54.930Z,5
2017-05-01T05:33:35.442Z,5
2017-05-01T05:34:15.971Z,5
2017-05-01T05:34:56.482Z,5
2017-05-01T05:35:37.004Z,5
2017-05-01T05:36:17.514Z,5
2017-05-01T05:36:58.023Z,5
2017-05-01T05:37:38.533Z,5
2017-05-01T05:38:19.065Z,5
2017-05-01T05:38:59.584Z,5
2017-05-01T05:39:40.105Z,5
2017-05-01T05:40:20.621Z,5
2017-05-01T05:41:01.130Z,5
2017-05-01T05:41:41.644Z,5
2017-05-01T05:42:22.164Z,10
2017-05-01T05:43:02.680Z,10
2017-05-01T05:43:43.204Z,10
2017-05-01T05:44:23.726Z,10
2017-05-01T05:45:04.241Z,10
2017-05-01T05:45:44.876Z,10
2017-05-01T05:46:25.404Z,10
2017-05-01T05:47:05.913Z,10
2017-05-01T05:47:46.396Z,10
2017-05-01T05:48:26.939Z,10
2017-05-01T05:49:07.406Z,10
2017-05-01T05:49:47.931Z,10
2017-05-01T05:50:28.453Z,10
2017-05-01T05:51:08.953Z,10
2017-05-01T05:51:49.464Z,10
2017-05-01T05:52:29.967Z,10
2017-05-01T05:53:10.452Z,10
2017-05-01T05:53:50.959Z,10
2017-05-01T05:54:31.476Z,10
2017-05-01T05:55:12.002Z,10
2017-05-01T05:55:52.525Z,10
2017-05-01T05:56:33.089Z,10
2017-05-01T05:57:13.548Z,10
2017-05-01T05:57:54.061Z,10
2017-05-01T05:58:34.560Z,10
2017-05-01T05:59:15.056Z,10
2017-05-01T05:59:55.627Z,10
2017-05-01T06:00:36.026Z,10
2017-05-01T06:01:16.547Z,10
2017-05-01T06:01:57.078Z,10
2017-05-01T06:02:37.841Z,10
2017-05-01T06:03:18.231Z,10
2017-05-01T06:03:58.651Z,5
2017-05-01T06:04:39.157Z,5
2017-05-01T06:05:19.639Z,5
2017-05-01T06:06:00.158Z,5
2017-05-01T06:06:40.666Z,5
2017-05-01T06:07:21.145Z,5
2017-05-01T06:08:01.681Z,5
2017-05-01T06:08:42.119Z,5
2017-05-01T06:09:22.612Z,5
2017-05-01T06:10:03.124Z,5
2017-05-01T06:10:43.635Z,5
2017-05-01T06:11:25.299Z,5
2017-05-01T06:12:05.811Z,10
2017-05-01T06:12:46.295Z,10
2017-05-01T06:13:26.795Z,10
2017-05-01T06:14:07.294Z,10
2017-05-01T06:14:47.787Z,10
2017-05-01T06:15:28.246Z,10
2017-05-01T06:16:09.546Z,10
2017-05-01T06:16:50.081Z,10
2017-05-01T06:17:30.537Z,10
2017-05-01T06:18:11.058Z,10
2017-05-01T06:18:51.552Z,10
2017-05-01T06:19:32.014Z,10
2017-05-01T06:20:12.507Z,10
2017-05-01T06:20:53.038Z,10
2017-05-01T06:21:33.545Z,10
2017-05-01T06:22:14.095Z,10
2017-05-01T06:22:54.613Z,10
2017-05-01T06:23:35.122Z,10
2017-05-01T06:24:15.635Z,10
2017-05-01T06:24:56.332Z,10
2017-05-01T06:25:36.664Z,10
2017-05-01T06:26:17.175Z,10
2017-05-01T06:26:57.744Z,10
2017-05-01T06:27:38.258Z,10
2017-05-01T06:28:18.758Z,10
2017-05-01T06:28:59.295Z,10
2017-05-01T06:29:39.774Z,10
2017-05-01T06:30:20.305Z,10
2017-05-01T06:31:00.769Z,10
2017-05-01T06:31:41.275Z,10
2017-05-01T06:32:21.779Z,10
2017-05-01T06:33:02.284Z,10
2017-05-01T06:33:42.959Z,15
2017-05-01T06:34:23.488Z,15
2017-05-01T06:35:03.806Z,15
2017-05-01T06:35:44.316Z,15
2017-05-01T06:36:24.833Z,15
2017-05-01T06:37:05.357Z,15
2017-05-01T06:37:45.849Z,15
2017-05-01T06:38:26.343Z,15
2017-05-01T06:39:06.847Z,15
2017-05-01T06:39:47.365Z,15
2017-05-01T06:40:27.822Z,15
2017-05-01T06:41:08.323Z,15
2017-05-01T06:41:48.795Z,15
2017-05-01T06:42:29.293Z,15
2017-05-01T06:43:09.764Z,15
2017-05-01T06:43:50.261Z,15
2017-05-01T06:44:30.774Z,15
2017-05-01T06:45:11.267Z,15
2017-05-01T06:45:51.794Z,15
2017-05-01T06:46:32.303Z,20
2017-05-01T06:47:12.825Z,15
2017-05-01T06:47:53.352Z,20
2017-05-01T06:48:33.859Z,20
2017-05-01T06:49:14.366Z,20
2017-05-01T06:49:54.888Z,20
2017-05-01T06:50:35.420Z,20
2017-05-01T06:51:15.932Z,20
2017-05-01T06:51:56.446Z,20
2017-05-01T06:52:36.948Z,20
2017-05-01T06:53:17.444Z,20
2017-05-01T06:53:57.956Z,20
2017-05-01T06:54:38.423Z,20
2017-05-01T06:55:18.938Z,20
2017-05-01T06:55:59.463Z,20
2017-05-01T06:56:39.986Z,20
2017-05-01T06:57:20.500Z,20
2017-05-01T06:58:01.016Z,20
2017-05-01T06:58:41.531Z,20
2017-05-01T06:59:22.053Z,20
2017-05-01T07:00:02.591Z,20
2017-05-01T07:00:43.094Z,20
2017-05-01T07:01:23.619Z,20
2017-05-01T07:02:04.146Z,20
2017-05-01T07:02:44.671Z,20
2017-05-01T07:03:25.182Z,20
2017-05-01T07:04:05.693Z,20
2017-05-01T07:04:46.219Z,20
2017-05-01T07:05:26.742Z,20
2017-05-01T07:06:07.251Z,20
2017-05-01T07:06:47.774Z,20
2017-05-01T07:07:28.294Z,20
2017-05-01T07:08:08.808Z,20
2017-05-01T07:08:49.328Z,20
2017-05-01T07:09:29.845Z,20
2017-05-01T07:10:10.357Z,20
2017-05-01T07:10:50.892Z,20
2017-05-01T07:11:31.401Z,20
2017-05-01T07:12:11.913Z,20
2017-05-01T07:12:52.423Z,20
2017-05-01T07:13:32.940Z,20
2017-05-01T07:14:13.458Z,20
2017-05-01T07:14:53.970Z,20
2017-05-01T07:15:34.500Z,20
2017-05-01T07:16:15.016Z,20
2017-05-01T07:16:55.541Z,20
2017-05-01T07:17:36.062Z,20
2017-05-01T07:18:16.559Z,25
2017-05-01T07:18:57.084Z,25
2017-05-01T07:19:37.637Z,25
2017-05-01T07:20:18.156Z,25
2017-05-01T07:20:58.670Z,25
2017-05-01T07:21:39.216Z,25
2017-05-01T07:22:19.916Z,25
2017-05-01T07:23:00.450Z,25
2017-05-01T07:23:40.971Z,25
2017-05-01T07:24:21.548Z,25
2017-05-01T07:25:02.078Z,25
2017-05-01T07:25:42.666Z,25
2017-05-01T07:26:23.044Z,25
2017-05-01T07:27:03.619Z,25
2017-05-01T07:27:44.140Z,25
2017-05-01T07:28:24.777Z,25
2017-05-01T07:29:05.295Z,25
2017-05-01T07:29:45.737Z,25
2017-05-01T07:30:26.273Z,25
2017-05-01T07:31:06.848Z,25
2017-05-01T07:31:47.355Z,25
2017-05-01T07:32:28.083Z,25
2017-05-01T07:33:08.675Z,25
2017-05-01T07:33:49.212Z,25
2017-05-01T07:34:29.840Z,25
2017-05-01T07:35:10.316Z,25
2017-05-01T07:35:50.756Z,20
2017-05-01T07:36:31.292Z,20
2017-05-01T07:37:12.070Z,20
2017-05-01T07:37:52.350Z,20
2017-05-01T07:38:33.010Z,20
2017-05-01T07:39:13.626Z,20
2017-05-01T07:39:54.175Z,20
2017-05-01T07:40:34.916Z,20
2017-05-01T07:41:15.460Z,20
2017-05-01T07:41:56.076Z,20
2017-05-01T07:42:36.633Z,20
2017-05-01T07:43:17.273Z,20
2017-05-01T07:43:57.774Z,20
2017-05-01T07:44:38.515Z,20
2017-05-01T07:45:19.061Z,20
2017-05-01T07:45:59.373Z,20
2017-05-01T07:46:39.966Z,20
2017-05-01T07:47:20.401Z,20
2017-05-01T07:48:01.015Z,20
2017-05-01T07:48:41.572Z,20
2017-05-01T07:49:22.328Z,20
2017-05-01T07:50:03.019Z,20
2017-05-01T07:50:44.116Z,20
2017-05-01T07:51:24.985Z,20
2017-05-01T07:52:05.437Z,25
2017-05-01T07:52:45.898Z,25
2017-05-01T07:53:26.518Z,25
2017-05-01T07:54:07.692Z,25
2017-05-01T07:54:48.260Z,25
2017-05-01T07:55:29.709Z,25
2017-05-01T07:56:10.521Z,25
2017-05-01T07:56:51.087Z,25
2017-05-01T07:57:32.099Z,30
2017-05-01T07:58:12.814Z,30
2017-05-01T07:58:54.510Z,30
2017-05-01T07:59:35.583Z,30
2017-05-01T08:00:16.302Z,30
2017-05-01T08:00:56.944Z,35
2017-05-01T08:01:39.009Z,35
2017-05-01T08:02:19.521Z,35
2017-05-01T08:03:01.418Z,35
2017-05-01T08:03:42.271Z,35
2017-05-01T08:04:23.175Z,40
2017-05-01T08:05:04.107Z,40
2017-05-01T08:05:44.792Z,40
2017-05-01T08:06:25.420Z,40
2017-05-01T08:07:06.531Z,40
2017-05-01T08:07:47.282Z,40
2017-05-01T08:08:27.936Z,40
2017-05-01T08:09:08.502Z,40
2017-05-01T08:09:49.898Z,40
2017-05-01T08:10:30.496Z,40
2017-05-01T08:11:15.448Z,40
2017-05-01T08:11:55.945Z,40
2017-05-01T08:12:36.424Z,40
2017-05-01T08:13:16.938Z,40
2017-05-01T08:13:57.428Z,40
2017-05-01T08:14:38.000Z,40
2017-05-01T08:15:18.462Z,35
2017-05-01T08:15:59.085Z,35
2017-05-01T08:16:39.652Z,30
2017-05-01T08:17:20.191Z,30
2017-05-01T08:18:00.587Z,35
2017-05-01T08:18:41.153Z,35
2017-05-01T08:19:21.828Z,35
2017-05-01T08:20:03.478Z,35
2017-05-01T08:20:44.088Z,35
2017-05-01T08:21:24.574Z,35
2017-05-01T08:22:05.169Z,40
2017-05-01T08:22:46.041Z,40
2017-05-01T08:23:26.696Z,40
2017-05-01T08:24:08.864Z,40
2017-05-01T08:24:49.832Z,40
2017-05-01T08:25:30.725Z,40
2017-05-01T08:26:11.636Z,40
2017-05-01T08:26:52.663Z,35
2017-05-01T08:27:33.097Z,35
2017-05-01T08:28:14.238Z,35
2017-05-01T08:28:55.075Z,30
2017-05-01T08:29:35.639Z,25
2017-05-01T08:30:16.195Z,25
2017-05-01T08:30:56.730Z,20
2017-05-01T08:31:37.268Z,20
2017-05-01T08:32:17.883Z,20
2017-05-01T08:32:58.432Z,20
2017-05-01T08:33:39.003Z,20
2017-05-01T08:34:19.475Z,20
2017-05-01T08:35:00.005Z,20
2017-05-01T08:35:40.517Z,15
2017-05-01T08:36:21.027Z,15
2017-05-01T08:37:01.545Z,15
2017-05-01T08:37:42.028Z,15
2017-05-01T08:38:22.579Z,15
2017-05-01T08:39:03.050Z,15
2017-05-01T08:39:43.854Z,15
2017-05-01T08:40:24.323Z,20
2017-05-01T08:41:04.737Z,20
2017-05-01T08:41:45.466Z,20
2017-05-01T08:42:26.214Z,15
2017-05-01T08:43:06.833Z,15
2017-05-01T08:43:47.208Z,15
2017-05-01T08:44:27.682Z,15
2017-05-01T08:45:08.230Z,15
2017-05-01T08:45:48.700Z,15
2017-05-01T08:46:29.240Z,15
2017-05-01T08:47:09.755Z,15
2017-05-01T08:47:50.586Z,15
2017-05-01T08:48:31.276Z,15
2017-05-01T08:49:11.756Z,20
2017-05-01T08:49:52.264Z,25
2017-05-01T08:50:32.786Z,30
2017-05-01T08:51:13.291Z,35
2017-05-01T08:51:53.804Z,35
2017-05-01T08:52:34.329Z,35
2017-05-01T08:53:14.799Z,40
2017-05-01T08:53:55.338Z,40
2017-05-01T08:54:36.136Z,35
2017-05-01T08:55:17.074Z,35
2017-05-01T08:55:59.294Z,35
2017-05-01T08:56:40.777Z,35
2017-05-01T08:58:55.332Z,30
2017-05-01T08:59:35.843Z,30
2017-05-01T09:00:16.381Z,30
2017-05-01T09:00:56.902Z,30
2017-05-01T09:01:37.634Z,30
2017-05-01T09:02:18.277Z,30
2017-05-01T09:02:59.034Z,30
2017-05-01T09:03:39.586Z,25
2017-05-01T09:04:20.028Z,25
2017-05-01T09:05:00.612Z,20
2017-05-01T09:05:41.236Z,20
2017-05-01T09:06:21.714Z,20
2017-05-01T09:07:02.462Z,20
2017-05-01T09:07:43.867Z,20
2017-05-01T09:08:25.504Z,20
2017-05-01T09:09:07.360Z,25
2017-05-01T09:09:50.685Z,25
2017-05-01T09:10:31.213Z,25
2017-05-01T09:11:11.998Z,30
2017-05-01T09:11:52.819Z,25
2017-05-01T09:12:33.355Z,25
2017-05-01T09:13:14.024Z,25
2017-05-01T09:13:54.716Z,25
2017-05-01T09:14:36.060Z,25
2017-05-01T09:15:16.652Z,20
2017-05-01T09:15:57.047Z,20
2017-05-01T09:16:37.583Z,20
2017-05-01T09:17:18.271Z,20
2017-05-01T09:17:58.753Z,20
2017-05-01T09:18:39.324Z,20
2017-05-01T09:19:19.754Z,20
2017-05-01T09:20:00.300Z,20
2017-05-01T09:20:40.892Z,25
2017-05-01T09:21:21.363Z,25
2017-05-01T09:22:02.059Z,25
2017-05-01T09:22:42.705Z,25
2017-05-01T09:23:23.162Z,20
2017-05-01T09:24:04.186Z,20
2017-05-01T09:24:44.920Z,20
2017-05-01T09:25:25.429Z,25
2017-05-01T09:26:06.250Z,25
2017-05-01T09:26:47.296Z,25
2017-05-01T09:27:28.575Z,25
2017-05-01T09:28:09.048Z,25
2017-05-01T09:28:49.635Z,20
2017-05-01T09:29:30.411Z,20
2017-05-01T09:30:11.082Z,25
2017-05-01T09:30:52.270Z,25
2017-05-01T09:31:33.057Z,25
2017-05-01T09:32:13.392Z,25
2017-05-01T09:32:53.886Z,25
2017-05-01T09:33:34.365Z,25
2017-05-01T09:34:15.028Z,25
2017-05-01T09:34:55.572Z,25
2017-05-01T09:35:36.103Z,30
2017-05-01T09:36:16.651Z,30
2017-05-01T09:36:58.038Z,35
2017-05-01T09:37:38.575Z,30
2017-05-01T09:38:19.372Z,30
2017-05-01T09:38:59.909Z,25
2017-05-01T09:39:40.322Z,30
2017-05-01T09:40:20.856Z,30
2017-05-01T09:41:01.563Z,30
2017-05-01T09:41:41.891Z,30
2017-05-01T09:42:22.517Z,30
2017-05-01T09:43:02.998Z,30
2017-05-01T09:43:43.514Z,30
2017-05-01T09:44:24.186Z,30
2017-05-01T09:46:42.287Z,30
2017-05-01T09:47:22.813Z,25
2017-05-01T09:48:03.332Z,25
2017-05-01T09:48:43.845Z,25
2017-05-01T09:51:22.598Z,20
2017-05-01T09:52:03.114Z,25
2017-05-01T09:52:43.659Z,25
2017-05-01T09:53:24.107Z,25
2017-05-01T09:54:04.594Z,25
2017-05-01T09:54:45.288Z,20
2017-05-01T09:55:25.783Z,20
2017-05-01T09:56:06.282Z,20
2017-05-01T09:56:46.881Z,20
2017-05-01T09:57:27.308Z,20
2017-05-01T09:58:08.479Z,20
2017-05-01T09:58:48.952Z,20
2017-05-01T09:59:29.432Z,30
2017-05-01T10:00:09.902Z,30
2017-05-01T10:00:50.468Z,30
2017-05-01T10:01:30.945Z,30
2017-05-01T10:02:11.417Z,30
2017-05-01T10:02:51.874Z,25
2017-05-01T10:03:32.412Z,25
2017-05-01T10:04:12.880Z,25
2017-05-01T10:04:53.365Z,25